KCPS/CPS METAR and TAF weather

Enter ICAO airport designator
Station Type Date Time Source
KCPS METAR 2019/07/15 19:53 UTC NOAA

KCPS 151953Z 11013G24KT 5SM -RA BR BKN012 BKN020 OVC026 23/21 A2998 RMK AO2 PK WND 10028/1858 SLP149 P0008 T02280211 $


Station Type Date Time Source
KCPS Decoded METAR 2019/07/15 19:53 UTC NOAA

ST LOUIS DOWNTOWN AIRPORT, IL, United States (KCPS) 38-34N 090-09W 126M
Jul 15, 2019 - 03:53 PM EDT / 2019.07.15 1953 UTC
Wind: from the ESE (110 degrees) at 15 MPH (13 KT) gusting to 28 MPH (24 KT):0
Visibility: 5 mile(s):0
Sky conditions: overcast
Weather: light rain; mist
Precipitation last hour: 0.08 inches
Temperature: 73.0 F (22.8 C)
Dew Point: 70.0 F (21.1 C)
Relative Humidity: 90%
Pressure (altimeter): 29.98 in. Hg (1015 hPa)
ob: KCPS 151953Z 11013G24KT 5SM -RA BR BKN012 BKN020 OVC026 23/21 A2998 RMK AO2 PK WND 10028/1858 SLP149 P0008 T02280211
cycle: 20

Station Type Date Time Source
KCPS TAF 2019/07/15 18:40 UTC NOAA

TAF KCPS 151737Z 1518/1618 11013G23KT 6SM -SHRA BKN015
TEMPO 1518/1521 4SM SHRA
FM160000 14012KT P6SM VCSH OVC012
FM160600 14006KT 6SM BR OVC010
FM161500 18007KT P6SM VCSH BKN015

Example: see airport list